Historyczne dane pomiarowe

Dodano dane terminowe – wersja testowa.

Dane z okresu 1951-2019

Wersja bazy: 1.34 [2019-03-16, lista zmian], aktualizacja planowana na 2019-04-15

Dane meteo z obszaru Polski uzyskane na podstawie danych udostępnionych przez Instytut Meteorologii i Gospodarki Wodnej – Państwowy Instytut Badawczy.

 

Wybierz Datę:    

       

TemperaturaWilgotnośćWiatrCiśnienieOpadyŚniegCzas trwania zjawisk
 Stacja t tx tn tng RH VA  wxwx mslp ppp RRR   cm mm wxwxwxwxwxwxwx
1994-08-14 14.2 17.0 10.0 8.2 63.5- 7.0 5.7---- 0.0------------
1994-08-13 15.6 21.4 12.4 13.7 81.5- 3.7 3.3---- 3.1------------
1994-08-12 16.1 21.5 12.6 9.7 82.3- 7.3 1.7---- 5.1------------
1994-08-11 17.9 25.9 15.9 16.4 81.0- 7.3 3.3---- 10.2------------
1994-08-10 21.0 29.1 10.0 9.7 66.0- 3.0 1.7---- 2.3------------
1994-08-09 21.1 26.7 15.9 17.3 66.5- 4.3 0.7---- 0.6------------
1994-08-08 20.6 25.4 15.2 16.8 73.5- 5.3 0.0---- 4.8------------
1994-08-07 22.9 27.9 14.4 13.7 64.5- 4.3 1.7---- 14.5------------
1994-08-06 23.7 31.4 13.9 11.7 61.8- 0.3 1.7---- 0.0------------
1994-08-05 24.6 34.3 8.8 6.4 46.3- 0.0 0.7---- 0.0------------
1994-08-04 21.7 30.8 8.8 7.2 52.0- 0.0 1.3---- 0.0------------
1994-08-03 24.0 29.9 15.3 13.7 56.5- 0.7 2.0---- 0.0------------
1994-08-02 24.5 31.8 18.3 14.8 62.3- 1.3 2.7---- 0.0------------
1994-08-01 27.7 37.3 13.3 12.8 46.0- 0.0 0.7---- 0.0------------
1994-07-31 28.1 37.2 14.4 11.2 44.5- 1.3 1.7---- 0.0------------
1994-07-30 26.3 36.8 13.9 13.7 51.0- 1.0 1.3---- 0.0------------
1994-07-29 25.5 36.2 14.5 11.2 49.5- 3.0 1.0---- 0.0------------
1994-07-28 25.5 34.8 14.0 10.9 51.3- 0.0 2.3---- 0.0------------
1994-07-27 24.2 32.2 19.1 17.8 64.0- 4.3 1.0---- 1.2------------
1994-07-26 25.1 34.5 14.9 12.1 54.3- 2.7 0.7---- 2.0------------
1994-07-25 23.8 33.8 11.3 8.1 51.0- 1.7 0.7---- 0.0------------
1994-07-24 23.1 31.8 10.8 6.8 51.5- 0.0 2.3---- 0.0------------
1994-07-23 21.7 30.8 9.9 6.0 51.0- 0.3 1.7---- 0.0------------
1994-07-22 21.1 31.0 9.1 5.4 54.0- 0.7 1.7---- 0.0------------
1994-07-21 19.1 28.1 7.8 4.1 56.3- 0.0 1.0---- 0.0------------
1994-07-20 19.1 25.1 8.4 6.3 56.8- 0.0 1.7---- 0.0------------
1994-07-19 18.8 23.9 14.7 12.2 63.8- 5.7 2.7---- 0.0------------
1994-07-18 18.8 24.4 14.4 11.4 75.8- 7.0 1.7---- 0.0------------
1994-07-17 21.6 29.4 14.2 10.3 74.8- 3.7 1.0---- 10.9------------
1994-07-16 21.8 27.9 16.4 12.7 68.8- 4.0 2.0---- 0.0------------
1994-07-15 22.5 31.0 15.4 10.7 63.3- 1.3 1.7---- 0.0------------
1994-07-14 22.9 31.4 12.6 7.7 58.5- 1.0 0.7---- 0.0------------
1994-07-13 21.9 30.2 12.0 8.2 59.8- 1.7 1.7---- 0.0------------
1994-07-12 20.7 26.9 12.2 9.1 68.5- 0.0 3.0---- 0.0------------
1994-07-11 21.0 27.4 11.9 8.7 61.3- 0.0 1.7---- 0.0------------
1994-07-10 18.1 24.1 12.8 10.9 72.5- 3.3 2.7---- 0.0------------
1994-07-09 15.7 19.2 13.9 10.7 81.5- 5.7 1.7---- 14.9------------
1994-07-08 14.3 15.8 11.8 10.1 80.3- 6.3 5.0---- 0.6------------
1994-07-07 17.3 23.9 10.0 7.2 73.8- 5.3 1.3---- 6.2------------
1994-07-06 19.2 26.9 11.8 6.0 70.3- 4.3 3.3---- 0.0------------
1994-07-05 20.1 25.1 15.2 9.7 68.0- 5.3 2.3---- 0.0------------
1994-07-04 22.3 31.1 10.3 8.9 60.3- 1.0 0.7---- 0.0------------
1994-07-03 20.8 29.1 10.8 3.9 61.0- 0.3 2.7---- 0.0------------
1994-07-02 19.5 25.9 8.4 1.5 63.0- 0.0 1.7---- 0.0------------
1994-07-01 17.9 23.9 8.8 2.1 64.8- 1.7 0.7---- 0.0------------
1994-06-30 20.5 23.9 16.3 15.0 72.3- 6.7 1.3---- 0.6------------
1994-06-29 24.7 34.3 18.4 3.9 74.5- 4.0 0.0---- 16.9------------
1994-06-28 24.3 31.3 17.6 11.7 71.3- 0.3 1.3---- 0.0------------
1994-06-27 24.0 31.3 12.8 8.4 68.0- 1.0 0.0---- 0.0------------
1994-06-26 21.6 30.1 7.1 2.1 61.5- 2.3 0.3---- 0.0------------
1994-06-25 16.7 25.9 2.9 3.7 57.8- 0.0 2.7---- 0.0------------
1994-06-24 14.6 21.9 4.3 -1.8 51.8- 0.0 2.7---- 0.0------------
1994-06-23 16.5 21.0 12.6 8.2 53.3- 1.7 3.3---- 0.0------------
1994-06-22 18.8 23.9 12.7 8.7 69.0- 5.0 3.7---- 0.0------------
1994-06-21 16.8 24.1 5.5 1.5 64.3- 1.7 0.7---- 0.0------------
1994-06-20 16.6 22.9 13.2 7.2 70.5- 4.0 2.3---- 0.0------------
1994-06-19 18.5 24.1 12.8 1.5 63.8- 3.3 3.7---- 0.0------------
1994-06-18 12.7 19.2 1.9 -2.0 70.3- 7.7 1.7---- 4.0------------
1994-06-17 11.1 14.3 7.6 4.7 67.3- 3.0 2.7---- 0.0------------
1994-06-16 10.9 14.1 9.0 2.6 75.8- 7.7 2.7---- 3.3------------
204.2 ms

 

Źródłem pochodzenia danych jest Instytut Meteorologii i Gospodarki Wodnej – Państwowy Instytut Badawczy. Dane Instytutu Meteorologii i Gospodarki Wodnej – Państwowego Instytutu Badawczego zostały przetworzone.

Dane źródłowe można odnaleźć na stronie https://dane.imgw.pl